sensor_id;sensor_type;location;lat;lon;timestamp;pressure;altitude;pressure_sealevel;temperature;humidity
9738;BME280;4908;47.446;13.900;2023-07-08T00:00:54;93394.28;;;13.32;100.00
9738;BME280;4908;47.446;13.900;2023-07-08T00:03:21;93391.56;;;13.21;100.00
9738;BME280;4908;47.446;13.900;2023-07-08T00:05:51;93395.81;;;13.15;100.00
9738;BME280;4908;47.446;13.900;2023-07-08T00:08:20;93391.94;;;13.09;100.00
9738;BME280;4908;47.446;13.900;2023-07-08T00:10:47;93389.25;;;13.16;100.00
9738;BME280;4908;47.446;13.900;2023-07-08T00:13:14;93388.47;;;13.12;100.00
9738;BME280;4908;47.446;13.900;2023-07-08T00:15:42;93393.88;;;13.12;100.00
9738;BME280;4908;47.446;13.900;2023-07-08T00:18:12;93394.25;;;13.14;100.00
9738;BME280;4908;47.446;13.900;2023-07-08T00:20:41;93393.88;;;13.12;100.00
9738;BME280;4908;47.446;13.900;2023-07-08T00:23:08;93393.13;;;13.15;100.00
9738;BME280;4908;47.446;13.900;2023-07-08T00:25:36;93392.31;;;13.08;100.00
9738;BME280;4908;47.446;13.900;2023-07-08T00:28:08;93405.41;;;13.13;100.00
9738;BME280;4908;47.446;13.900;2023-07-08T00:30:35;93398.47;;;13.12;100.00
9738;BME280;4908;47.446;13.900;2023-07-08T00:33:05;93402.31;;;13.07;100.00
9738;BME280;4908;47.446;13.900;2023-07-08T00:35:34;93399.63;;;13.07;100.00
9738;BME280;4908;47.446;13.900;2023-07-08T00:38:01;93396.94;;;13.11;100.00
9738;BME280;4908;47.446;13.900;2023-07-08T00:40:29;93392.31;;;13.04;100.00
9738;BME280;4908;47.446;13.900;2023-07-08T00:43:00;93396.94;;;13.07;100.00
9738;BME280;4908;47.446;13.900;2023-07-08T00:45:38;93398.41;;;13.01;100.00
9738;BME280;4908;47.446;13.900;2023-07-08T00:48:18;93398.00;;;12.85;100.00
9738;BME280;4908;47.446;13.900;2023-07-08T00:50:46;93394.91;;;12.83;100.00
9738;BME280;4908;47.446;13.900;2023-07-08T00:53:22;93392.22;;;12.83;100.00
9738;BME280;4908;47.446;13.900;2023-07-08T00:55:49;93393.78;;;12.84;100.00
9738;BME280;4908;47.446;13.900;2023-07-08T00:58:19;93398.00;;;12.85;100.00
9738;BME280;4908;47.446;13.900;2023-07-08T01:00:48;93395.69;;;12.87;100.00
9738;BME280;4908;47.446;13.900;2023-07-08T01:03:18;93396.06;;;12.82;100.00
9738;BME280;4908;47.446;13.900;2023-07-08T01:05:46;93401.44;;;12.82;100.00
9738;BME280;4908;47.446;13.900;2023-07-08T01:08:14;93398.75;;;12.82;100.00
9738;BME280;4908;47.446;13.900;2023-07-08T01:10:45;93403.34;;;12.85;100.00
9738;BME280;4908;47.446;13.900;2023-07-08T01:13:14;93399.88;;;12.81;100.00
9738;BME280;4908;47.446;13.900;2023-07-08T01:15:43;93396.00;;;12.68;100.00
9738;BME280;4908;47.446;13.900;2023-07-08T01:18:13;93408.28;;;12.69;100.00
9738;BME280;4908;47.446;13.900;2023-07-08T01:20:45;93402.56;;;12.78;100.00
9738;BME280;4908;47.446;13.900;2023-07-08T01:23:14;93406.78;;;12.75;100.00
9738;BME280;4908;47.446;13.900;2023-07-08T01:25:43;93395.69;;;12.80;100.00
9738;BME280;4908;47.446;13.900;2023-07-08T01:28:11;93411.75;;;12.77;100.00
9738;BME280;4908;47.446;13.900;2023-07-08T01:30:40;93403.69;;;12.66;100.00
9738;BME280;4908;47.446;13.900;2023-07-08T01:33:13;93402.88;;;12.55;100.00
9738;BME280;4908;47.446;13.900;2023-07-08T01:35:42;93404.47;;;12.67;100.00
9738;BME280;4908;47.446;13.900;2023-07-08T01:38:10;93395.25;;;12.71;100.00
9738;BME280;4908;47.446;13.900;2023-07-08T01:40:48;93395.25;;;12.71;100.00
9738;BME280;4908;47.446;13.900;2023-07-08T01:43:16;93404.47;;;12.70;100.00
9738;BME280;4908;47.446;13.900;2023-07-08T01:45:43;93393.31;;;12.68;100.00
9738;BME280;4908;47.446;13.900;2023-07-08T01:48:11;93390.66;;;12.75;100.00
9738;BME280;4908;47.446;13.900;2023-07-08T01:50:42;93396.84;;;12.86;100.00
9738;BME280;4908;47.446;13.900;2023-07-08T01:53:15;93398.31;;;12.73;100.00
9738;BME280;4908;47.446;13.900;2023-07-08T01:55:44;93392.59;;;12.78;100.00
9738;BME280;4908;47.446;13.900;2023-07-08T01:58:10;93382.19;;;12.73;100.00
9738;BME280;4908;47.446;13.900;2023-07-08T02:00:37;93375.31;;;12.79;100.00
9738;BME280;4908;47.446;13.900;2023-07-08T02:03:04;93379.16;;;12.78;100.00
9738;BME280;4908;47.446;13.900;2023-07-08T02:05:31;93373.78;;;12.78;100.00
9738;BME280;4908;47.446;13.900;2023-07-08T02:07:58;93371.03;;;12.68;100.00
9738;BME280;4908;47.446;13.900;2023-07-08T02:10:24;93365.28;;;12.58;100.00
9738;BME280;4908;47.446;13.900;2023-07-08T02:12:53;93364.44;;;12.47;100.00
9738;BME280;4908;47.446;13.900;2023-07-08T02:15:20;93385.19;;;12.50;100.00
9738;BME280;4908;47.446;13.900;2023-07-08T02:17:47;93379.81;;;12.54;100.00
9738;BME280;4908;47.446;13.900;2023-07-08T02:20:14;93380.53;;;12.44;100.00
9738;BME280;4908;47.446;13.900;2023-07-08T02:22:42;93379.03;;;12.43;100.00
9738;BME280;4908;47.446;13.900;2023-07-08T02:25:09;93365.91;;;12.34;100.00
9738;BME280;4908;47.446;13.900;2023-07-08T02:27:36;93374.34;;;12.29;100.00
9738;BME280;4908;47.446;13.900;2023-07-08T02:30:06;93371.28;;;12.31;100.00
9738;BME280;4908;47.446;13.900;2023-07-08T02:32:33;93368.22;;;12.36;100.00
9738;BME280;4908;47.446;13.900;2023-07-08T02:35:01;93364.41;;;12.40;100.00
9738;BME280;4908;47.446;13.900;2023-07-08T02:37:28;93368.22;;;12.36;100.00
9738;BME280;4908;47.446;13.900;2023-07-08T02:39:55;93360.56;;;12.34;100.00
9738;BME280;4908;47.446;13.900;2023-07-08T02:42:22;93359.03;;;12.33;100.00
9738;BME280;4908;47.446;13.900;2023-07-08T02:44:49;93359.78;;;12.34;100.00
9738;BME280;4908;47.446;13.900;2023-07-08T02:47:17;93359.78;;;12.34;100.00
9738;BME280;4908;47.446;13.900;2023-07-08T02:49:44;93363.63;;;12.33;100.00
9738;BME280;4908;47.446;13.900;2023-07-08T02:52:11;93362.44;;;12.23;100.00
9738;BME280;4908;47.446;13.900;2023-07-08T02:54:38;93373.56;;;12.22;100.00
9738;BME280;4908;47.446;13.900;2023-07-08T02:57:04;93371.25;;;12.24;100.00
9738;BME280;4908;47.446;13.900;2023-07-08T02:59:31;93375.09;;;12.26;100.00
9738;BME280;4908;47.446;13.900;2023-07-08T03:01:58;93379.72;;;12.26;100.00
9738;BME280;4908;47.446;13.900;2023-07-08T03:04:26;93372.06;;;12.28;100.00
9738;BME280;4908;47.446;13.900;2023-07-08T03:06:53;93376.66;;;12.27;100.00
9738;BME280;4908;47.446;13.900;2023-07-08T03:09:20;93375.03;;;12.12;100.00
9738;BME280;4908;47.446;13.900;2023-07-08T03:11:47;93368.84;;;12.05;100.00
9738;BME280;4908;47.446;13.900;2023-07-08T03:14:13;93368.84;;;12.05;100.00
9738;BME280;4908;47.446;13.900;2023-07-08T03:16:40;93374.97;;;12.05;100.00
9738;BME280;4908;47.446;13.900;2023-07-08T03:19:09;93373.47;;;12.11;100.00
9738;BME280;4908;47.446;13.900;2023-07-08T03:21:41;93371.91;;;12.03;100.00
9738;BME280;4908;47.446;13.900;2023-07-08T03:24:09;93377.22;;;11.93;100.00
9738;BME280;4908;47.446;13.900;2023-07-08T03:26:37;93374.94;;;11.95;100.00
9738;BME280;4908;47.446;13.900;2023-07-08T03:29:04;93376.34;;;11.82;100.00
9738;BME280;4908;47.446;13.900;2023-07-08T03:31:31;93373.34;;;11.87;100.00
9738;BME280;4908;47.446;13.900;2023-07-08T03:33:58;93367.88;;;11.73;100.00
9738;BME280;4908;47.446;13.900;2023-07-08T03:36:25;93370.94;;;11.75;100.00
9738;BME280;4908;47.446;13.900;2023-07-08T03:38:55;93365.16;;;11.65;100.00
9738;BME280;4908;47.446;13.900;2023-07-08T03:41:23;93361.75;;;11.76;100.00
9738;BME280;4908;47.446;13.900;2023-07-08T03:43:51;93362.16;;;11.78;100.00
9738;BME280;4908;47.446;13.900;2023-07-08T03:46:19;93352.19;;;11.78;100.00
9738;BME280;4908;47.446;13.900;2023-07-08T03:48:46;93361.78;;;11.79;100.00
9738;BME280;4908;47.446;13.900;2023-07-08T03:51:17;93358.19;;;11.64;100.00
9738;BME280;4908;47.446;13.900;2023-07-08T03:53:46;93358.66;;;11.73;100.00
9738;BME280;4908;47.446;13.900;2023-07-08T03:56:14;93357.22;;;11.83;100.00
9738;BME280;4908;47.446;13.900;2023-07-08T03:58:41;93355.69;;;11.86;100.00
9738;BME280;4908;47.446;13.900;2023-07-08T04:01:14;93355.75;;;11.93;100.00
9738;BME280;4908;47.446;13.900;2023-07-08T04:03:41;93358.38;;;11.86;100.00
9738;BME280;4908;47.446;13.900;2023-07-08T04:06:08;93348.09;;;11.95;100.00
9738;BME280;4908;47.446;13.900;2023-07-08T04:08:34;93343.94;;;12.08;100.00
9738;BME280;4908;47.446;13.900;2023-07-08T04:11:01;93346.16;;;11.95;100.00
9738;BME280;4908;47.446;13.900;2023-07-08T04:13:30;93346.63;;;12.08;100.00
9738;BME280;4908;47.446;13.900;2023-07-08T04:15:59;93350.09;;;12.15;100.00
9738;BME280;4908;47.446;13.900;2023-07-08T04:18:27;93343.66;;;12.30;100.00
9738;BME280;4908;47.446;13.900;2023-07-08T04:20:54;93353.59;;;12.26;100.00
9738;BME280;4908;47.446;13.900;2023-07-08T04:23:21;93342.75;;;12.05;100.00
9738;BME280;4908;47.446;13.900;2023-07-08T04:25:50;93348.22;;;12.23;100.00
9738;BME280;4908;47.446;13.900;2023-07-08T04:28:17;93347.53;;;12.40;100.00
9738;BME280;4908;47.446;13.900;2023-07-08T04:30:45;93343.34;;;12.46;100.00
9738;BME280;4908;47.446;13.900;2023-07-08T04:33:13;93348.28;;;12.37;100.00
9738;BME280;4908;47.446;13.900;2023-07-08T04:35:41;93349.81;;;12.38;100.00
9738;BME280;4908;47.446;13.900;2023-07-08T04:38:14;93346.00;;;12.39;100.00
9738;BME280;4908;47.446;13.900;2023-07-08T04:40:43;93349.44;;;12.36;100.00
9738;BME280;4908;47.446;13.900;2023-07-08T04:43:10;93342.50;;;12.28;100.00
9738;BME280;4908;47.446;13.900;2023-07-08T04:45:37;93337.97;;;12.46;100.00
9738;BME280;4908;47.446;13.900;2023-07-08T04:48:07;93334.59;;;12.70;100.00
9738;BME280;4908;47.446;13.900;2023-07-08T04:50:39;93335.41;;;12.95;100.00
9738;BME280;4908;47.446;13.900;2023-07-08T04:53:06;93341.56;;;12.99;100.00
9738;BME280;4908;47.446;13.900;2023-07-08T04:55:34;93339.31;;;13.08;100.00
9738;BME280;4908;47.446;13.900;2023-07-08T04:58:01;93330.09;;;13.23;100.00
9738;BME280;4908;47.446;13.900;2023-07-08T05:00:28;93333.19;;;13.32;100.00
9738;BME280;4908;47.446;13.900;2023-07-08T05:02:55;93337.03;;;13.38;100.00
9738;BME280;4908;47.446;13.900;2023-07-08T05:05:23;93334.72;;;13.51;100.00
9738;BME280;4908;47.446;13.900;2023-07-08T05:07:50;93342.78;;;13.55;100.00
9738;BME280;4908;47.446;13.900;2023-07-08T05:10:18;93342.78;;;13.51;100.00
9738;BME280;4908;47.446;13.900;2023-07-08T05:12:45;93335.47;;;13.59;100.00
9738;BME280;4908;47.446;13.900;2023-07-08T05:15:13;93337.00;;;13.67;100.00
9738;BME280;4908;47.446;13.900;2023-07-08T05:17:41;93327.78;;;13.68;100.00
9738;BME280;4908;47.446;13.900;2023-07-08T05:20:10;93326.25;;;13.77;100.00
9738;BME280;4908;47.446;13.900;2023-07-08T05:22:39;93332.75;;;13.87;100.00
9738;BME280;4908;47.446;13.900;2023-07-08T05:25:08;93325.41;;;14.01;100.00
9738;BME280;4908;47.446;13.900;2023-07-08T05:27:35;93319.22;;;14.15;100.00
9738;BME280;4908;47.446;13.900;2023-07-08T05:30:03;93326.91;;;14.23;100.00
9738;BME280;4908;47.446;13.900;2023-07-08T05:32:30;93331.91;;;14.35;100.00
9738;BME280;4908;47.446;13.900;2023-07-08T05:34:57;93326.84;;;14.48;100.00
9738;BME280;4908;47.446;13.900;2023-07-08T05:37:24;93340.66;;;14.61;100.00
9738;BME280;4908;47.446;13.900;2023-07-08T05:39:55;93337.56;;;14.62;100.00
9738;BME280;4908;47.446;13.900;2023-07-08T05:42:22;93341.38;;;14.68;100.00
9738;BME280;4908;47.446;13.900;2023-07-08T05:44:49;93337.13;;;14.74;100.00
9738;BME280;4908;47.446;13.900;2023-07-08T05:47:17;93345.16;;;14.81;100.00
9738;BME280;4908;47.446;13.900;2023-07-08T05:49:44;93333.59;;;14.88;100.00
9738;BME280;4908;47.446;13.900;2023-07-08T05:52:11;93333.88;;;15.00;100.00
9738;BME280;4908;47.446;13.900;2023-07-08T05:54:38;93334.22;;;15.09;100.00
9738;BME280;4908;47.446;13.900;2023-07-08T05:57:08;93337.28;;;15.15;100.00
9738;BME280;4908;47.446;13.900;2023-07-08T05:59:36;93332.28;;;15.10;100.00
9738;BME280;4908;47.446;13.900;2023-07-08T06:02:05;93337.28;;;15.15;100.00
9738;BME280;4908;47.446;13.900;2023-07-08T06:04:32;93335.28;;;15.22;100.00
9738;BME280;4908;47.446;13.900;2023-07-08T06:06:59;93328.75;;;15.20;100.00
9738;BME280;4908;47.446;13.900;2023-07-08T06:09:26;93330.31;;;15.17;100.00
9738;BME280;4908;47.446;13.900;2023-07-08T06:11:52;93332.75;;;15.01;100.00
9738;BME280;4908;47.446;13.900;2023-07-08T06:14:21;93331.94;;;15.04;100.00
9738;BME280;4908;47.446;13.900;2023-07-08T06:16:47;93329.97;;;15.08;100.00
9738;BME280;4908;47.446;13.900;2023-07-08T06:19:14;93323.25;;;15.34;100.00
9738;BME280;4908;47.446;13.900;2023-07-08T06:21:43;93325.84;;;15.52;100.00
9738;BME280;4908;47.446;13.900;2023-07-08T06:24:10;93319.53;;;15.69;100.00
9738;BME280;4908;47.446;13.900;2023-07-08T06:26:36;93317.44;;;15.87;100.00
9738;BME280;4908;47.446;13.900;2023-07-08T06:29:03;93308.41;;;16.04;100.00
9738;BME280;4908;47.446;13.900;2023-07-08T06:31:32;93306.44;;;16.08;100.00
9738;BME280;4908;47.446;13.900;2023-07-08T06:34:00;93297.50;;;16.14;100.00
9738;BME280;4908;47.446;13.900;2023-07-08T06:36:26;93307.16;;;16.12;100.00
9738;BME280;4908;47.446;13.900;2023-07-08T06:38:53;93297.81;;;16.20;100.00
9738;BME280;4908;47.446;13.900;2023-07-08T06:41:20;93300.00;;;16.29;100.00
9738;BME280;4908;47.446;13.900;2023-07-08T06:43:47;93297.50;;;16.45;100.00
9738;BME280;4908;47.446;13.900;2023-07-08T06:46:14;93304.50;;;16.42;100.00
9738;BME280;4908;47.446;13.900;2023-07-08T06:48:42;93303.69;;;16.45;100.00
9738;BME280;4908;47.446;13.900;2023-07-08T06:51:09;93308.16;;;16.62;100.00
9738;BME280;4908;47.446;13.900;2023-07-08T06:53:35;93311.13;;;16.71;100.00
9738;BME280;4908;47.446;13.900;2023-07-08T06:56:02;93299.09;;;16.76;100.00
9738;BME280;4908;47.446;13.900;2023-07-08T06:58:29;93306.34;;;16.82;100.00
9738;BME280;4908;47.446;13.900;2023-07-08T07:00:56;93304.63;;;16.95;100.00
9738;BME280;4908;47.446;13.900;2023-07-08T07:03:23;93308.50;;;16.94;100.00
9738;BME280;4908;47.446;13.900;2023-07-08T07:05:52;93306.13;;;16.96;100.00
9738;BME280;4908;47.446;13.900;2023-07-08T07:08:18;93295.00;;;17.18;100.00
9738;BME280;4908;47.446;13.900;2023-07-08T07:10:45;93295.06;;;17.14;100.00
9738;BME280;4908;47.446;13.900;2023-07-08T07:13:12;93291.03;;;17.26;100.00
9738;BME280;4908;47.446;13.900;2023-07-08T07:15:39;93287.66;;;17.45;100.00
9738;BME280;4908;47.446;13.900;2023-07-08T07:18:06;93287.34;;;17.66;100.00
9738;BME280;4908;47.446;13.900;2023-07-08T07:20:35;93280.72;;;17.90;100.00
9738;BME280;4908;47.446;13.900;2023-07-08T07:23:04;93281.63;;;18.03;100.00
9738;BME280;4908;47.446;13.900;2023-07-08T07:25:31;93277.97;;;18.13;100.00
9738;BME280;4908;47.446;13.900;2023-07-08T07:27:57;93278.03;;;18.10;100.00
9738;BME280;4908;47.446;13.900;2023-07-08T07:30:24;93267.63;;;18.28;100.00
9738;BME280;4908;47.446;13.900;2023-07-08T07:32:51;93268.25;;;18.35;100.00
9738;BME280;4908;47.446;13.900;2023-07-08T07:35:18;93264.28;;;18.40;100.00
9738;BME280;4908;47.446;13.900;2023-07-08T07:37:45;93263.75;;;18.48;100.00
9738;BME280;4908;47.446;13.900;2023-07-08T07:40:13;93261.25;;;18.57;100.00
9738;BME280;4908;47.446;13.900;2023-07-08T07:42:41;93262.81;;;18.74;100.00
9738;BME280;4908;47.446;13.900;2023-07-08T07:45:09;93259.13;;;18.85;100.00
9738;BME280;4908;47.446;13.900;2023-07-08T07:47:36;93249.97;;;18.95;100.00
9738;BME280;4908;47.446;13.900;2023-07-08T07:50:03;93254.38;;;19.05;100.00
9738;BME280;4908;47.446;13.900;2023-07-08T07:52:30;93260.50;;;19.09;100.00
9738;BME280;4908;47.446;13.900;2023-07-08T07:54:57;93250.44;;;19.41;100.00
9738;BME280;4908;47.446;13.900;2023-07-08T07:57:26;93254.97;;;19.48;100.00
9738;BME280;4908;47.446;13.900;2023-07-08T07:59:53;93255.13;;;19.57;100.00
9738;BME280;4908;47.446;13.900;2023-07-08T08:02:20;93246.03;;;19.63;100.00
9738;BME280;4908;47.446;13.900;2023-07-08T08:04:47;93248.16;;;19.72;100.00
9738;BME280;4908;47.446;13.900;2023-07-08T08:07:13;93254.56;;;19.94;100.00
9738;BME280;4908;47.446;13.900;2023-07-08T08:09:40;93246.59;;;20.32;100.00
9738;BME280;4908;47.446;13.900;2023-07-08T08:12:08;93242.56;;;20.36;100.00
9738;BME280;4908;47.446;13.900;2023-07-08T08:14:37;93249.09;;;20.26;100.00
9738;BME280;4908;47.446;13.900;2023-07-08T08:17:04;93243.31;;;20.24;100.00
9738;BME280;4908;47.446;13.900;2023-07-08T08:19:31;93245.72;;;20.35;100.00
9738;BME280;4908;47.446;13.900;2023-07-08T08:21:58;93246.97;;;20.46;100.00
9738;BME280;4908;47.446;13.900;2023-07-08T08:24:25;93248.72;;;20.53;100.00
9738;BME280;4908;47.446;13.900;2023-07-08T08:26:52;93254.53;;;20.68;100.00
9738;BME280;4908;47.446;13.900;2023-07-08T08:29:19;93241.56;;;20.72;100.00
9738;BME280;4908;47.446;13.900;2023-07-08T08:31:47;93242.78;;;20.83;100.00
9738;BME280;4908;47.446;13.900;2023-07-08T08:34:16;93247.28;;;20.90;100.00
9738;BME280;4908;47.446;13.900;2023-07-08T08:36:42;93240.44;;;21.10;100.00
9738;BME280;4908;47.446;13.900;2023-07-08T08:39:09;93248.19;;;21.12;100.00
9738;BME280;4908;47.446;13.900;2023-07-08T08:41:38;93244.50;;;21.06;100.00
9738;BME280;4908;47.446;13.900;2023-07-08T08:44:06;93239.03;;;21.18;100.00
9738;BME280;4908;47.446;13.900;2023-07-08T08:46:39;93240.53;;;21.32;100.00
9738;BME280;4908;47.446;13.900;2023-07-08T08:49:15;93240.31;;;21.64;100.00
9738;BME280;4908;47.446;13.900;2023-07-08T08:51:43;93240.06;;;21.84;100.00
9738;BME280;4908;47.446;13.900;2023-07-08T08:54:10;93242.75;;;21.96;100.00
9738;BME280;4908;47.446;13.900;2023-07-08T08:56:42;93233.19;;;22.13;100.00
9738;BME280;4908;47.446;13.900;2023-07-08T08:59:17;93226.75;;;22.42;100.00
9738;BME280;4908;47.446;13.900;2023-07-08T09:01:49;93229.16;;;22.40;100.00
9738;BME280;4908;47.446;13.900;2023-07-08T09:04:23;93230.94;;;22.34;100.00
9738;BME280;4908;47.446;13.900;2023-07-08T09:09:24;93223.84;;;22.36;100.00
9738;BME280;4908;47.446;13.900;2023-07-08T09:12:01;93219.38;;;22.51;100.00
9738;BME280;4908;47.446;13.900;2023-07-08T09:14:31;93218.91;;;22.65;100.00
9738;BME280;4908;47.446;13.900;2023-07-08T09:17:14;93213.50;;;22.83;100.00
9738;BME280;4908;47.446;13.900;2023-07-08T09:19:45;93217.38;;;22.95;100.00
9738;BME280;4908;47.446;13.900;2023-07-08T09:22:15;93212.91;;;23.10;100.00
9738;BME280;4908;47.446;13.900;2023-07-08T09:24:46;93209.47;;;23.28;100.00
9738;BME280;4908;47.446;13.900;2023-07-08T09:27:15;93217.38;;;23.26;100.00
9738;BME280;4908;47.446;13.900;2023-07-08T09:29:41;93206.84;;;23.15;100.00
9738;BME280;4908;47.446;13.900;2023-07-08T09:32:17;93214.38;;;23.33;100.00
9738;BME280;4908;47.446;13.900;2023-07-08T09:34:47;93212.13;;;23.49;100.00
9738;BME280;4908;47.446;13.900;2023-07-08T09:37:25;93222.84;;;23.83;100.00
9738;BME280;4908;47.446;13.900;2023-07-08T09:39:53;93210.41;;;24.00;100.00
9738;BME280;4908;47.446;13.900;2023-07-08T09:42:22;93216.38;;;24.08;100.00
9738;BME280;4908;47.446;13.900;2023-07-08T09:44:55;93217.91;;;24.18;100.00
9738;BME280;4908;47.446;13.900;2023-07-08T09:47:24;93205.97;;;23.94;100.00
9738;BME280;4908;47.446;13.900;2023-07-08T09:49:55;93211.06;;;24.05;100.00
9738;BME280;4908;47.446;13.900;2023-07-08T09:52:22;93214.53;;;24.23;100.00
9738;BME280;4908;47.446;13.900;2023-07-08T09:54:49;93207.06;;;24.51;99.38
9738;BME280;4908;47.446;13.900;2023-07-08T09:57:24;93208.28;;;24.41;99.24
9738;BME280;4908;47.446;13.900;2023-07-08T09:59:56;93217.44;;;24.29;99.42
9738;BME280;4908;47.446;13.900;2023-07-08T10:02:28;93218.97;;;24.21;100.00
9738;BME280;4908;47.446;13.900;2023-07-08T10:05:00;93211.19;;;24.01;99.47
9738;BME280;4908;47.446;13.900;2023-07-08T10:07:29;93199.94;;;24.08;100.00
9738;BME280;4908;47.446;13.900;2023-07-08T10:09:59;93201.63;;;24.15;98.69
9738;BME280;4908;47.446;13.900;2023-07-08T10:12:30;93211.06;;;24.23;100.00
9738;BME280;4908;47.446;13.900;2023-07-08T10:15:00;93212.28;;;24.31;98.52
9738;BME280;4908;47.446;13.900;2023-07-08T10:17:28;93222.31;;;24.34;100.00
9738;BME280;4908;47.446;13.900;2023-07-08T10:19:57;93219.38;;;24.46;99.61
9738;BME280;4908;47.446;13.900;2023-07-08T10:22:34;93227.34;;;24.44;95.96
9738;BME280;4908;47.446;13.900;2023-07-08T10:25:11;93218.78;;;24.60;100.00
9738;BME280;4908;47.446;13.900;2023-07-08T10:27:47;93215.28;;;24.69;99.20
9738;BME280;4908;47.446;13.900;2023-07-08T10:30:22;93220.75;;;24.87;99.60
9738;BME280;4908;47.446;13.900;2023-07-08T10:35:48;93216.38;;;25.13;94.06
9738;BME280;4908;47.446;13.900;2023-07-08T10:38:34;93215.97;;;25.38;88.92
9738;BME280;4908;47.446;13.900;2023-07-08T10:41:10;93213.50;;;25.58;92.57
9738;BME280;4908;47.446;13.900;2023-07-08T10:43:49;93208.31;;;25.51;93.07
9738;BME280;4908;47.446;13.900;2023-07-08T10:46:26;93206.13;;;25.64;87.42
9738;BME280;4908;47.446;13.900;2023-07-08T10:51:54;93209.59;;;25.74;92.21
9738;BME280;4908;47.446;13.900;2023-07-08T10:54:55;93203.22;;;25.92;93.28
9738;BME280;4908;47.446;13.900;2023-07-08T10:57:50;93194.28;;;26.06;80.23
9738;BME280;4908;47.446;13.900;2023-07-08T11:00:27;93180.13;;;25.98;80.95
9738;BME280;4908;47.446;13.900;2023-07-08T11:03:16;93181.91;;;26.10;86.49
9738;BME280;4908;47.446;13.900;2023-07-08T11:05:52;93179.13;;;26.34;89.39
9738;BME280;4908;47.446;13.900;2023-07-08T11:08:27;93185.88;;;26.62;81.75
9738;BME280;4908;47.446;13.900;2023-07-08T11:10:58;93186.34;;;26.46;81.53
9738;BME280;4908;47.446;13.900;2023-07-08T11:13:28;93176.97;;;26.52;85.81
9738;BME280;4908;47.446;13.900;2023-07-08T11:16:04;93180.47;;;26.53;85.58
9738;BME280;4908;47.446;13.900;2023-07-08T11:18:39;93174.16;;;26.76;81.61
9738;BME280;4908;47.446;13.900;2023-07-08T11:21:10;93168.38;;;26.89;87.43
9738;BME280;4908;47.446;13.900;2023-07-08T11:23:43;93178.34;;;26.86;90.28
9738;BME280;4908;47.446;13.900;2023-07-08T11:26:18;93177.28;;;26.98;85.07
9738;BME280;4908;47.446;13.900;2023-07-08T11:28:48;93172.13;;;27.20;87.23
9738;BME280;4908;47.446;13.900;2023-07-08T11:31:17;93164.81;;;27.46;82.64
9738;BME280;4908;47.446;13.900;2023-07-08T11:33:45;93155.97;;;27.42;80.23
9738;BME280;4908;47.446;13.900;2023-07-08T11:36:13;93160.09;;;27.32;68.86
9738;BME280;4908;47.446;13.900;2023-07-08T11:38:49;93150.94;;;27.06;67.82
9738;BME280;4908;47.446;13.900;2023-07-08T11:41:19;93156.06;;;26.84;73.79
9738;BME280;4908;47.446;13.900;2023-07-08T11:43:49;93154.88;;;27.05;76.75
9738;BME280;4908;47.446;13.900;2023-07-08T11:46:19;93144.28;;;27.47;76.93
9738;BME280;4908;47.446;13.900;2023-07-08T11:48:48;93147.63;;;27.92;70.92
9738;BME280;4908;47.446;13.900;2023-07-08T11:51:19;93137.59;;;28.09;56.31
9738;BME280;4908;47.446;13.900;2023-07-08T11:53:58;93138.91;;;28.39;69.80
9738;BME280;4908;47.446;13.900;2023-07-08T11:56:25;93136.97;;;28.65;65.80
9738;BME280;4908;47.446;13.900;2023-07-08T12:01:46;93138.28;;;29.32;55.73
9738;BME280;4908;47.446;13.900;2023-07-08T12:04:25;93131.53;;;29.39;43.17
9738;BME280;4908;47.446;13.900;2023-07-08T12:07:02;93122.75;;;29.40;45.81
9738;BME280;4908;47.446;13.900;2023-07-08T12:09:37;93124.69;;;28.97;40.86
9738;BME280;4908;47.446;13.900;2023-07-08T12:12:11;93120.16;;;28.94;42.09
9738;BME280;4908;47.446;13.900;2023-07-08T12:14:41;93126.25;;;29.35;43.25
9738;BME280;4908;47.446;13.900;2023-07-08T12:17:11;93118.63;;;29.61;42.61
9738;BME280;4908;47.446;13.900;2023-07-08T12:19:40;93114.72;;;29.79;40.17
9738;BME280;4908;47.446;13.900;2023-07-08T12:22:09;93110.75;;;29.91;43.74
9738;BME280;4908;47.446;13.900;2023-07-08T12:24:39;93108.06;;;30.08;39.25
9738;BME280;4908;47.446;13.900;2023-07-08T12:27:09;93107.84;;;30.11;42.38
9738;BME280;4908;47.446;13.900;2023-07-08T12:29:37;93109.91;;;30.27;41.46
9738;BME280;4908;47.446;13.900;2023-07-08T12:32:04;93101.72;;;30.88;37.95
9738;BME280;4908;47.446;13.900;2023-07-08T12:34:32;93105.00;;;30.98;35.94
9738;BME280;4908;47.446;13.900;2023-07-08T12:37:00;93111.13;;;30.26;34.49
9738;BME280;4908;47.446;13.900;2023-07-08T12:39:32;93102.44;;;30.61;34.28
9738;BME280;4908;47.446;13.900;2023-07-08T12:42:01;93098.47;;;30.89;34.45
9738;BME280;4908;47.446;13.900;2023-07-08T12:44:30;93099.47;;;31.09;33.65
9738;BME280;4908;47.446;13.900;2023-07-08T12:47:00;93097.41;;;31.37;35.25
9738;BME280;4908;47.446;13.900;2023-07-08T12:49:28;93099.13;;;31.67;32.74
9738;BME280;4908;47.446;13.900;2023-07-08T12:51:55;93090.81;;;31.73;32.42
9738;BME280;4908;47.446;13.900;2023-07-08T12:54:22;93103.34;;;31.85;32.64
9738;BME280;4908;47.446;13.900;2023-07-08T12:56:49;93096.53;;;31.97;30.93
9738;BME280;4908;47.446;13.900;2023-07-08T12:59:21;93093.97;;;32.10;30.79
9738;BME280;4908;47.446;13.900;2023-07-08T13:01:50;93098.34;;;31.78;29.78
9738;BME280;4908;47.446;13.900;2023-07-08T13:04:19;93098.81;;;31.88;30.53
9738;BME280;4908;47.446;13.900;2023-07-08T13:06:46;93098.41;;;31.67;30.20
9738;BME280;4908;47.446;13.900;2023-07-08T13:09:34;93095.72;;;32.13;30.20
9738;BME280;4908;47.446;13.900;2023-07-08T13:12:10;93100.44;;;31.50;30.05
9738;BME280;4908;47.446;13.900;2023-07-08T13:14:40;93097.22;;;32.14;31.45
9738;BME280;4908;47.446;13.900;2023-07-08T13:17:11;93101.53;;;32.61;31.20
9738;BME280;4908;47.446;13.900;2023-07-08T13:19:40;93106.06;;;32.94;29.17
9738;BME280;4908;47.446;13.900;2023-07-08T13:22:12;93092.03;;;33.46;29.53
9738;BME280;4908;47.446;13.900;2023-07-08T13:24:40;93100.66;;;33.91;28.10